createdAt,value
2019-05-20T00:00:16.277Z,14.60
2019-05-20T00:02:44.688Z,14.50
2019-05-20T00:05:13.442Z,14.50
2019-05-20T00:07:41.853Z,14.40
2019-05-20T00:10:10.601Z,14.50
2019-05-20T00:12:39.373Z,14.40
2019-05-20T00:15:08.042Z,14.30
2019-05-20T00:17:36.463Z,14.30
2019-05-20T00:20:07.066Z,14.30
2019-05-20T00:22:35.751Z,14.30
2019-05-20T00:25:06.502Z,14.30
2019-05-20T00:27:35.174Z,14.40
2019-05-20T00:30:04.622Z,14.30
2019-05-20T00:32:41.063Z,14.20
2019-05-20T00:35:04.326Z,14.20
2019-05-20T00:37:33.004Z,14.20
2019-05-20T00:40:01.410Z,14.20
2019-05-20T00:42:30.082Z,14.20
2019-05-20T00:44:58.769Z,14.20
2019-05-20T00:47:27.460Z,14.10
2019-05-20T00:49:55.866Z,14.20
2019-05-20T00:52:24.629Z,14.20
2019-05-20T00:54:53.044Z,14.10
2019-05-20T00:57:21.462Z,14.10
2019-05-20T00:59:50.201Z,14.10
2019-05-20T01:02:18.628Z,14.10
2019-05-20T01:04:47.047Z,14.10
2019-05-20T01:07:15.628Z,14.10
2019-05-20T01:09:44.334Z,14.10
2019-05-20T01:12:12.757Z,14.10
2019-05-20T01:14:41.173Z,14.10
2019-05-20T01:17:09.601Z,14.10
2019-05-20T01:19:38.082Z,14.10
2019-05-20T01:22:06.754Z,14.10
2019-05-20T01:24:35.158Z,14.10
2019-05-20T01:27:03.829Z,14.10
2019-05-20T01:29:32.514Z,14.10
2019-05-20T01:32:01.202Z,14.10
2019-05-20T01:34:29.997Z,14.20
2019-05-20T01:36:58.689Z,14.10
2019-05-20T01:39:27.138Z,14.20
2019-05-20T01:41:55.605Z,14.20
2019-05-20T01:44:24.344Z,14.20
2019-05-20T01:46:52.751Z,14.10
2019-05-20T01:49:21.438Z,14.10
2019-05-20T01:51:50.210Z,14.20
2019-05-20T01:54:18.629Z,14.20
2019-05-20T01:56:47.045Z,14.20
2019-05-20T01:59:15.457Z,14.20
2019-05-20T02:01:43.883Z,14.10
2019-05-20T02:04:12.376Z,14.10
2019-05-20T02:06:40.810Z,14.10
2019-05-20T02:09:09.298Z,14.00
2019-05-20T02:11:37.762Z,14.10
2019-05-20T02:14:08.206Z,14.10
2019-05-20T02:16:36.908Z,14.00
2019-05-20T02:19:05.488Z,14.00
2019-05-20T02:21:34.379Z,14.00
2019-05-20T02:24:02.797Z,14.00
2019-05-20T02:26:31.558Z,13.90
2019-05-20T02:29:00.241Z,14.00
2019-05-20T02:31:28.651Z,14.00
2019-05-20T02:33:57.066Z,14.10
2019-05-20T02:36:25.486Z,14.10
2019-05-20T02:38:54.186Z,14.10
2019-05-20T02:41:22.602Z,14.10
2019-05-20T02:43:51.009Z,14.10
2019-05-20T02:46:19.417Z,14.10
2019-05-20T02:48:47.846Z,14.10
2019-05-20T02:51:17.886Z,14.20
2019-05-20T02:53:46.298Z,14.20
2019-05-20T02:56:14.714Z,14.30
2019-05-20T02:58:43.129Z,14.30
2019-05-20T03:01:11.532Z,14.30
2019-05-20T03:03:40.030Z,14.30
2019-05-20T03:06:08.756Z,14.40
2019-05-20T03:08:37.431Z,14.40
2019-05-20T03:11:06.130Z,14.40
2019-05-20T03:13:34.542Z,14.40
2019-05-20T03:16:02.956Z,14.40
2019-05-20T03:18:31.366Z,14.40
2019-05-20T03:20:59.773Z,14.40
2019-05-20T03:23:28.549Z,14.40
2019-05-20T03:25:56.949Z,14.40
2019-05-20T03:28:25.372Z,14.40
2019-05-20T03:30:54.220Z,14.50
2019-05-20T03:33:22.794Z,14.50
2019-05-20T03:35:51.206Z,14.50
2019-05-20T03:38:19.622Z,14.60
2019-05-20T03:40:48.097Z,14.60
2019-05-20T03:43:16.523Z,14.60
2019-05-20T03:45:44.940Z,14.70
2019-05-20T03:48:13.359Z,14.60
2019-05-20T03:50:41.950Z,14.60
2019-05-20T03:53:10.369Z,14.70
2019-05-20T03:55:38.777Z,14.70
2019-05-20T03:58:07.200Z,14.70
2019-05-20T04:00:38.705Z,14.70
2019-05-20T04:03:07.203Z,14.70
2019-05-20T04:05:35.701Z,14.80
2019-05-20T04:08:04.118Z,14.80
2019-05-20T04:10:32.549Z,14.80
2019-05-20T04:13:01.208Z,14.80
2019-05-20T04:15:29.630Z,14.80
2019-05-20T04:17:58.030Z,14.90
2019-05-20T04:20:26.452Z,14.90
2019-05-20T04:22:55.015Z,14.90
2019-05-20T04:25:23.734Z,14.90
2019-05-20T04:27:52.155Z,14.90
2019-05-20T04:30:20.806Z,14.90
2019-05-20T04:32:49.219Z,14.90
2019-05-20T04:35:22.531Z,14.90
2019-05-20T04:37:47.762Z,15.00
2019-05-20T04:40:16.769Z,15.00
2019-05-20T04:42:45.175Z,15.00
2019-05-20T04:45:14.106Z,15.10
2019-05-20T04:47:42.509Z,15.10
2019-05-20T04:50:11.366Z,15.10
2019-05-20T04:52:39.772Z,15.10
2019-05-20T04:55:08.262Z,15.10
2019-05-20T04:57:36.669Z,15.10
2019-05-20T05:00:07.607Z,15.10
2019-05-20T05:02:36.331Z,15.20
2019-05-20T05:05:07.119Z,15.20
2019-05-20T05:07:35.970Z,15.30
2019-05-20T05:10:07.135Z,15.30
2019-05-20T05:12:35.683Z,15.20
2019-05-20T05:15:08.053Z,15.20
2019-05-20T05:17:37.070Z,15.20
2019-05-20T05:20:17.491Z,15.20
2019-05-20T05:22:39.060Z,15.30
2019-05-20T05:25:07.621Z,15.30
2019-05-20T05:27:36.318Z,15.20
2019-05-20T05:30:06.446Z,15.30
2019-05-20T05:32:41.698Z,15.20
2019-05-20T05:35:14.905Z,15.30
2019-05-20T05:37:43.816Z,15.30
2019-05-20T05:40:13.627Z,15.30
2019-05-20T05:42:42.080Z,15.20
2019-05-20T05:45:10.841Z,15.20
2019-05-20T05:47:39.595Z,15.30
2019-05-20T05:50:08.652Z,15.30
2019-05-20T05:52:37.056Z,15.30
2019-05-20T05:55:05.913Z,15.30
2019-05-20T05:57:34.317Z,15.30
2019-05-20T06:00:03.772Z,15.30
2019-05-20T06:02:32.503Z,15.30
2019-05-20T06:05:00.918Z,15.30
2019-05-20T06:07:29.326Z,15.30
2019-05-20T06:09:57.743Z,15.30
2019-05-20T06:12:26.153Z,15.40
2019-05-20T06:14:54.837Z,15.40
2019-05-20T06:17:23.238Z,15.40
2019-05-20T06:19:51.661Z,15.40
2019-05-20T06:22:20.490Z,15.40
2019-05-20T06:24:49.129Z,15.40
2019-05-20T06:27:17.874Z,15.40
2019-05-20T06:29:46.284Z,15.50
2019-05-20T06:32:15.375Z,15.40
2019-05-20T06:34:44.140Z,15.50
2019-05-20T06:37:17.016Z,15.50
2019-05-20T06:39:45.428Z,15.60
2019-05-20T06:42:14.097Z,15.60
2019-05-20T06:44:52.300Z,15.60
2019-05-20T06:47:12.637Z,15.60
2019-05-20T06:49:41.123Z,15.70
2019-05-20T06:52:09.537Z,15.70
2019-05-20T06:54:38.425Z,15.70
2019-05-20T06:57:06.940Z,15.70
2019-05-20T06:59:35.467Z,15.70
2019-05-20T07:02:03.938Z,15.80
2019-05-20T07:04:32.718Z,15.80
2019-05-20T07:07:01.512Z,15.80
2019-05-20T07:09:29.935Z,15.80
2019-05-20T07:11:58.674Z,15.90
2019-05-20T07:14:27.081Z,15.90
2019-05-20T07:16:55.742Z,16.00
2019-05-20T07:19:24.142Z,16.00
2019-05-20T07:21:52.555Z,16.00
2019-05-20T07:24:20.968Z,16.00
2019-05-20T07:26:49.389Z,16.00
2019-05-20T07:29:17.805Z,16.10
2019-05-20T07:31:46.230Z,16.10
2019-05-20T07:34:14.665Z,16.10
2019-05-20T07:36:43.129Z,16.10
2019-05-20T07:39:11.538Z,16.10
2019-05-20T07:41:41.634Z,16.20
2019-05-20T07:44:10.153Z,16.20
2019-05-20T07:46:38.645Z,16.30
2019-05-20T07:49:07.582Z,16.30
2019-05-20T07:51:36.882Z,16.30
2019-05-20T07:54:05.605Z,16.30
2019-05-20T07:56:37.195Z,16.30
2019-05-20T07:59:07.964Z,16.30
2019-05-20T08:01:36.458Z,16.30
2019-05-20T08:04:04.929Z,16.30
2019-05-20T08:06:33.360Z,16.30
2019-05-20T08:09:02.143Z,16.30
2019-05-20T08:11:30.549Z,16.30
2019-05-20T08:13:58.973Z,16.40
2019-05-20T08:16:27.390Z,16.40
2019-05-20T08:18:55.799Z,16.40
2019-05-20T08:21:24.501Z,16.30
2019-05-20T08:23:53.262Z,16.30
2019-05-20T08:26:21.704Z,16.40
2019-05-20T08:28:50.089Z,16.40
2019-05-20T08:31:18.505Z,16.40
2019-05-20T08:33:46.918Z,16.40
2019-05-20T08:36:15.655Z,16.40
2019-05-20T08:38:44.362Z,16.40
2019-05-20T08:41:12.779Z,16.40
2019-05-20T08:43:41.213Z,16.40
2019-05-20T08:46:09.685Z,16.40
2019-05-20T08:48:38.098Z,16.40
2019-05-20T08:51:06.762Z,16.50
2019-05-20T08:53:35.170Z,16.50
2019-05-20T08:56:03.902Z,16.50
2019-05-20T08:58:32.361Z,16.50
2019-05-20T09:01:00.785Z,16.50
2019-05-20T09:03:30.550Z,16.50
2019-05-20T09:05:59.253Z,16.50
2019-05-20T09:08:28.027Z,16.60
2019-05-20T09:10:56.435Z,16.60
2019-05-20T09:13:24.843Z,16.80
2019-05-20T09:15:53.271Z,16.80
2019-05-20T09:18:21.681Z,16.90
2019-05-20T09:20:50.522Z,16.90
2019-05-20T09:23:40.093Z,17.00
2019-05-20T09:26:08.520Z,17.10
2019-05-20T09:28:37.301Z,17.30
2019-05-20T09:31:06.141Z,17.40
2019-05-20T09:33:35.867Z,17.50
2019-05-20T09:36:04.758Z,17.50
2019-05-20T09:38:36.665Z,17.60
2019-05-20T09:41:03.333Z,17.50
2019-05-20T09:43:31.744Z,17.50
2019-05-20T09:46:07.532Z,17.60
2019-05-20T09:48:30.569Z,17.50
2019-05-20T09:50:59.273Z,17.60
2019-05-20T09:53:27.746Z,17.70
2019-05-20T09:55:56.239Z,17.70
2019-05-20T09:58:24.663Z,17.70
2019-05-20T10:00:53.060Z,17.70
2019-05-20T10:03:21.478Z,17.70
2019-05-20T10:05:49.893Z,17.80
2019-05-20T10:08:35.845Z,17.80
2019-05-20T10:10:48.465Z,17.90
2019-05-20T10:13:17.279Z,18.00
2019-05-20T10:15:45.701Z,18.00
2019-05-20T10:18:14.435Z,18.00
2019-05-20T10:20:42.854Z,18.00
2019-05-20T10:23:15.457Z,18.00
2019-05-20T10:25:41.414Z,18.00
2019-05-20T10:28:09.832Z,18.00
2019-05-20T10:30:38.270Z,18.00
2019-05-20T10:33:09.354Z,17.90
2019-05-20T10:35:36.900Z,17.90
2019-05-20T10:38:05.422Z,17.90
2019-05-20T10:40:34.065Z,17.90
2019-05-20T10:43:02.508Z,17.90
2019-05-20T10:45:31.250Z,17.90
2019-05-20T10:47:59.686Z,17.90
2019-05-20T10:50:28.095Z,17.90
2019-05-20T10:52:56.536Z,17.90
2019-05-20T10:55:25.067Z,17.90
2019-05-20T10:57:53.498Z,17.90
2019-05-20T11:00:22.499Z,17.90
2019-05-20T11:02:51.250Z,17.90
2019-05-20T11:05:19.931Z,17.90
2019-05-20T11:07:48.451Z,17.90
2019-05-20T11:10:17.352Z,17.90
2019-05-20T11:12:46.114Z,17.90
2019-05-20T11:15:15.070Z,17.90
2019-05-20T11:17:43.477Z,17.80
2019-05-20T11:20:12.594Z,17.80
2019-05-20T11:22:40.970Z,17.80
2019-05-20T11:25:10.684Z,17.80
2019-05-20T11:27:39.189Z,17.80
2019-05-20T11:30:08.369Z,17.80
2019-05-20T11:32:37.170Z,17.80
2019-05-20T11:35:09.088Z,17.80
2019-05-20T11:37:37.817Z,17.80
2019-05-20T11:40:09.388Z,17.80
2019-05-20T11:42:38.105Z,17.80
2019-05-20T11:45:09.980Z,17.80
2019-05-20T11:47:38.722Z,17.80
2019-05-20T11:50:08.741Z,17.90
2019-05-20T11:52:37.422Z,17.90
2019-05-20T11:55:07.061Z,17.90
2019-05-20T11:57:35.543Z,17.90
2019-05-20T12:00:07.390Z,17.90
2019-05-20T12:02:35.801Z,18.00
2019-05-20T12:05:31.575Z,18.00
2019-05-20T12:07:58.688Z,18.10
2019-05-20T12:10:27.094Z,18.10
2019-05-20T12:12:55.538Z,18.10
2019-05-20T12:15:23.960Z,18.10
2019-05-20T12:17:52.386Z,18.10
2019-05-20T12:20:20.970Z,18.10
2019-05-20T12:22:49.398Z,18.10
2019-05-20T12:25:18.117Z,18.10
2019-05-20T12:27:46.530Z,18.10
2019-05-20T12:30:15.393Z,18.10
2019-05-20T12:32:44.186Z,18.20
2019-05-20T12:35:12.981Z,18.20
2019-05-20T12:37:45.350Z,18.20
2019-05-20T12:40:12.441Z,18.20
2019-05-20T12:42:40.859Z,18.20
2019-05-20T12:45:10.702Z,18.20
2019-05-20T12:47:39.122Z,18.30
2019-05-20T12:50:08.607Z,18.20
2019-05-20T12:52:37.426Z,18.20
2019-05-20T12:55:09.640Z,18.30
2019-05-20T12:57:36.834Z,18.30
2019-05-20T13:00:13.081Z,18.30
2019-05-20T13:02:42.937Z,18.30
2019-05-20T13:05:11.899Z,18.30
2019-05-20T13:07:40.377Z,18.30
2019-05-20T13:10:26.927Z,18.20
2019-05-20T13:12:40.060Z,18.30
2019-05-20T13:15:10.196Z,18.40
2019-05-20T13:17:43.839Z,18.40
2019-05-20T13:20:09.606Z,18.40
2019-05-20T13:22:38.031Z,18.50
2019-05-20T13:25:07.410Z,18.50
2019-05-20T13:27:35.834Z,18.50
2019-05-20T13:30:06.487Z,18.60
2019-05-20T13:32:34.954Z,18.60
2019-05-20T13:35:04.692Z,18.60
2019-05-20T13:37:33.139Z,18.60
2019-05-20T13:40:03.144Z,18.60
2019-05-20T13:42:31.695Z,18.70
2019-05-20T13:45:00.111Z,18.70
2019-05-20T13:47:28.602Z,18.80
2019-05-20T13:49:57.001Z,18.80
2019-05-20T13:52:25.425Z,18.80
2019-05-20T13:54:54.267Z,18.80
2019-05-20T13:57:22.670Z,18.80
2019-05-20T13:59:51.089Z,18.80
2019-05-20T14:02:19.504Z,18.80
2019-05-20T14:04:47.977Z,18.80
2019-05-20T14:07:16.411Z,18.80
2019-05-20T14:09:45.177Z,18.80
2019-05-20T14:12:13.588Z,18.80
2019-05-20T14:14:42.013Z,18.70
2019-05-20T14:17:10.479Z,18.70
2019-05-20T14:19:38.893Z,18.70
2019-05-20T14:22:07.304Z,18.70
2019-05-20T14:24:35.727Z,18.70
2019-05-20T14:27:04.290Z,18.70
2019-05-20T14:29:33.261Z,18.70
2019-05-20T14:32:01.982Z,18.70
2019-05-20T14:34:30.445Z,18.70
2019-05-20T14:36:58.873Z,18.70
2019-05-20T14:39:27.295Z,18.80
2019-05-20T14:41:55.989Z,18.70
2019-05-20T14:44:24.421Z,18.70
2019-05-20T14:46:52.899Z,18.70
2019-05-20T14:49:21.321Z,18.70
2019-05-20T14:51:49.725Z,18.80
2019-05-20T14:54:18.155Z,18.80
2019-05-20T14:56:46.633Z,18.80
2019-05-20T14:59:15.082Z,18.80
2019-05-20T15:01:43.773Z,18.80
2019-05-20T15:04:12.212Z,18.80
2019-05-20T15:06:40.942Z,18.80
2019-05-20T15:09:09.368Z,18.80
2019-05-20T15:11:38.863Z,18.80
2019-05-20T15:14:07.892Z,18.80
2019-05-20T15:16:36.620Z,18.80
2019-05-20T15:19:05.049Z,18.70
2019-05-20T15:21:33.441Z,18.70
2019-05-20T15:24:02.123Z,18.70
2019-05-20T15:26:50.026Z,18.70
2019-05-20T15:29:27.540Z,18.60
2019-05-20T15:31:49.057Z,18.60
2019-05-20T15:34:17.487Z,18.50
2019-05-20T15:36:45.948Z,18.60
2019-05-20T15:39:14.406Z,18.50
2019-05-20T15:41:42.829Z,18.50
2019-05-20T15:44:11.433Z,18.50
2019-05-20T15:46:40.334Z,18.40
2019-05-20T15:49:09.017Z,18.40
2019-05-20T15:51:37.716Z,18.40
2019-05-20T15:54:06.135Z,18.40
2019-05-20T15:56:34.887Z,18.40
2019-05-20T15:59:03.349Z,18.30
2019-05-20T16:01:32.166Z,18.30
2019-05-20T16:04:00.588Z,18.30
2019-05-20T16:06:28.998Z,18.20
2019-05-20T16:08:57.824Z,18.20
2019-05-20T16:11:26.277Z,18.20
2019-05-20T16:13:54.741Z,18.20
2019-05-20T16:16:23.488Z,18.10
2019-05-20T16:18:51.912Z,18.10
2019-05-20T16:21:20.322Z,18.10
2019-05-20T16:23:48.758Z,18.10
2019-05-20T16:26:17.219Z,18.10
2019-05-20T16:28:46.122Z,18.10
2019-05-20T16:31:14.606Z,18.00
2019-05-20T16:33:43.281Z,18.00
2019-05-20T16:36:11.713Z,18.00
2019-05-20T16:38:40.178Z,17.90
2019-05-20T16:41:08.942Z,18.00
2019-05-20T16:43:37.358Z,17.90
2019-05-20T16:46:06.537Z,17.90
2019-05-20T16:48:35.055Z,18.00
2019-05-20T16:51:03.480Z,18.00
2019-05-20T16:53:31.960Z,18.00
2019-05-20T16:56:00.675Z,18.00
2019-05-20T16:58:29.110Z,18.00
2019-05-20T17:00:57.841Z,18.00
2019-05-20T17:03:26.534Z,18.00
2019-05-20T17:05:55.222Z,17.90
2019-05-20T17:08:23.919Z,18.00
2019-05-20T17:10:52.328Z,18.00
2019-05-20T17:13:20.741Z,18.00
2019-05-20T17:15:49.149Z,18.00
2019-05-20T17:18:17.566Z,18.00
2019-05-20T17:20:46.572Z,18.00
2019-05-20T17:23:15.271Z,18.00
2019-05-20T17:25:43.762Z,18.00
2019-05-20T17:28:12.170Z,18.00
2019-05-20T17:30:45.331Z,18.00
2019-05-20T17:33:11.188Z,18.00
2019-05-20T17:35:39.785Z,18.00
2019-05-20T17:38:08.594Z,18.00
2019-05-20T17:40:37.545Z,18.00
2019-05-20T17:43:06.149Z,18.00
2019-05-20T17:45:34.888Z,18.00
2019-05-20T17:48:03.551Z,18.00
2019-05-20T17:50:32.045Z,18.00
2019-05-20T17:53:00.470Z,18.00
2019-05-20T17:55:29.820Z,18.00
2019-05-20T17:57:58.728Z,17.90
2019-05-20T18:00:27.153Z,17.90
2019-05-20T18:02:55.559Z,17.90
2019-05-20T18:05:23.980Z,17.90
2019-05-20T18:07:52.390Z,17.90
2019-05-20T18:10:22.460Z,17.90
2019-05-20T18:12:50.864Z,17.90
2019-05-20T18:15:19.553Z,17.90
2019-05-20T18:17:47.967Z,17.80
2019-05-20T18:20:17.022Z,17.80
2019-05-20T18:22:45.720Z,17.70
2019-05-20T18:25:14.813Z,17.70
2019-05-20T18:27:43.241Z,17.70
2019-05-20T18:30:14.212Z,17.70
2019-05-20T18:32:42.936Z,17.70
2019-05-20T18:35:12.191Z,17.70
2019-05-20T18:37:40.625Z,17.70
2019-05-20T18:40:14.824Z,17.60
2019-05-20T18:42:40.050Z,17.60
2019-05-20T18:45:09.621Z,17.60
2019-05-20T18:47:38.029Z,17.60
2019-05-20T18:50:07.980Z,17.60
2019-05-20T18:52:36.746Z,17.60
2019-05-20T18:55:06.508Z,17.60
2019-05-20T18:57:35.255Z,17.60
2019-05-20T19:00:08.606Z,17.60
2019-05-20T19:02:37.338Z,17.60
2019-05-20T19:05:07.490Z,17.50
2019-05-20T19:07:35.897Z,17.50
2019-05-20T19:10:05.454Z,17.50
2019-05-20T19:12:33.863Z,17.50
2019-05-20T19:15:02.358Z,17.40
2019-05-20T19:17:32.542Z,17.40
2019-05-20T19:20:01.190Z,17.30
2019-05-20T19:22:29.593Z,17.30
2019-05-20T19:24:58.016Z,17.30
2019-05-20T19:27:26.720Z,17.30
2019-05-20T19:29:55.140Z,17.40
2019-05-20T19:32:24.166Z,17.40
2019-05-20T19:34:52.658Z,17.40
2019-05-20T19:37:21.138Z,17.40
2019-05-20T19:39:49.821Z,17.40
2019-05-20T19:42:18.273Z,17.40
2019-05-20T19:44:46.731Z,17.40
2019-05-20T19:47:15.137Z,17.40
2019-05-20T19:49:43.565Z,17.40
2019-05-20T19:52:12.246Z,17.30
2019-05-20T19:54:40.943Z,17.30
2019-05-20T19:57:09.345Z,17.20
2019-05-20T19:59:37.812Z,17.20
2019-05-20T20:02:16.791Z,17.10
2019-05-20T20:04:36.738Z,17.10
2019-05-20T20:07:05.156Z,17.10
2019-05-20T20:09:33.632Z,17.00
2019-05-20T20:12:02.065Z,17.00
2019-05-20T20:14:30.488Z,17.00
2019-05-20T20:16:58.896Z,17.00
2019-05-20T20:19:27.342Z,17.00
2019-05-20T20:21:56.113Z,17.00
2019-05-20T20:24:26.228Z,17.00
2019-05-20T20:26:54.656Z,17.00
2019-05-20T20:29:23.137Z,17.00
2019-05-20T20:31:51.546Z,17.00
2019-05-20T20:34:20.382Z,17.00
2019-05-20T20:36:48.772Z,17.00
2019-05-20T20:39:17.197Z,17.00
2019-05-20T20:41:45.937Z,17.00
2019-05-20T20:44:14.343Z,16.90
2019-05-20T20:46:43.011Z,16.90
2019-05-20T20:49:14.624Z,16.90
2019-05-20T20:51:41.844Z,16.90
2019-05-20T20:54:10.247Z,16.90
2019-05-20T20:56:38.669Z,16.90
2019-05-20T20:59:07.373Z,16.90
2019-05-20T21:01:36.181Z,16.90
2019-05-20T21:04:04.585Z,16.90
2019-05-20T21:06:33.002Z,16.80
2019-05-20T21:09:01.405Z,16.80
2019-05-20T21:11:29.849Z,16.80
2019-05-20T21:13:58.252Z,16.90
2019-05-20T21:16:26.677Z,16.80
2019-05-20T21:18:55.087Z,16.80
2019-05-20T21:21:23.867Z,16.70
2019-05-20T21:23:52.269Z,16.70
2019-05-20T21:26:21.045Z,16.70
2019-05-20T21:28:49.501Z,16.70
2019-05-20T21:31:17.942Z,16.70
2019-05-20T21:33:46.351Z,16.70
2019-05-20T21:36:15.066Z,16.60
2019-05-20T21:38:43.475Z,16.60
2019-05-20T21:41:12.203Z,16.60
2019-05-20T21:43:40.614Z,16.70
2019-05-20T21:46:09.021Z,16.60
2019-05-20T21:48:37.702Z,16.50
2019-05-20T21:51:06.383Z,16.50
2019-05-20T21:53:35.150Z,16.50
2019-05-20T21:56:03.970Z,16.40
2019-05-20T21:58:32.377Z,16.40
2019-05-20T22:01:01.442Z,16.50
2019-05-20T22:03:29.840Z,16.40
2019-05-20T22:05:58.258Z,16.40
2019-05-20T22:08:26.669Z,16.40
2019-05-20T22:10:55.100Z,16.40
2019-05-20T22:13:23.814Z,16.40
2019-05-20T22:15:52.259Z,16.40
2019-05-20T22:18:21.042Z,16.40
2019-05-20T22:20:49.448Z,16.30
2019-05-20T22:23:22.194Z,16.30
2019-05-20T22:25:52.184Z,16.30
2019-05-20T22:28:20.789Z,16.20
2019-05-20T22:30:49.209Z,16.20
2019-05-20T22:33:17.621Z,16.20
2019-05-20T22:35:46.028Z,16.20
2019-05-20T22:38:14.445Z,16.20
2019-05-20T22:40:43.221Z,16.30
2019-05-20T22:43:11.931Z,16.20
2019-05-20T22:45:40.618Z,16.10
2019-05-20T22:48:09.306Z,16.00
2019-05-20T22:50:37.710Z,16.00
2019-05-20T22:53:06.121Z,16.00
2019-05-20T22:55:34.538Z,16.00
2019-05-20T22:58:03.290Z,16.00
2019-05-20T23:00:32.061Z,15.90
2019-05-20T23:03:00.571Z,15.90
2019-05-20T23:05:28.977Z,15.80
2019-05-20T23:07:57.402Z,15.70
2019-05-20T23:10:25.813Z,15.70
2019-05-20T23:12:54.552Z,15.70
2019-05-20T23:15:23.288Z,15.70
2019-05-20T23:17:52.037Z,15.70
2019-05-20T23:20:20.441Z,15.70
2019-05-20T23:22:49.251Z,15.70
2019-05-20T23:25:17.918Z,15.60
2019-05-20T23:27:46.384Z,15.60
2019-05-20T23:30:16.841Z,15.60
2019-05-20T23:32:45.269Z,15.60
2019-05-20T23:35:13.756Z,15.60
2019-05-20T23:37:42.174Z,15.60
2019-05-20T23:40:11.889Z,15.50
2019-05-20T23:42:40.305Z,15.50
2019-05-20T23:45:09.550Z,15.60
2019-05-20T23:47:37.973Z,15.60
2019-05-20T23:50:06.845Z,15.60
2019-05-20T23:52:35.274Z,15.50
2019-05-20T23:55:07.851Z,15.50
2019-05-20T23:57:36.261Z,15.40
